sensor_id;sensor_type;location;lat;lon;timestamp;pressure;altitude;pressure_sealevel;temperature;humidity
58975;BME280;44751;52.236;5.178;2023-02-17T00:01:15;101721.28;;;9.02;100.00
58975;BME280;44751;52.236;5.178;2023-02-17T00:03:42;101722.69;;;9.07;100.00
58975;BME280;44751;52.236;5.178;2023-02-17T00:06:17;101704.44;;;9.00;100.00
58975;BME280;44751;52.236;5.178;2023-02-17T00:08:44;101719.44;;;9.03;100.00
58975;BME280;44751;52.236;5.178;2023-02-17T00:11:11;101708.78;;;9.11;100.00
58975;BME280;44751;52.236;5.178;2023-02-17T00:13:38;101716.34;;;8.98;100.00
58975;BME280;44751;52.236;5.178;2023-02-17T00:16:17;101706.13;;;9.01;100.00
58975;BME280;44751;52.236;5.178;2023-02-17T00:18:44;101713.66;;;8.98;100.00
58975;BME280;44751;52.236;5.178;2023-02-17T00:21:18;101710.06;;;9.07;100.00
58975;BME280;44751;52.236;5.178;2023-02-17T00:23:46;101720.72;;;8.99;100.00
58975;BME280;44751;52.236;5.178;2023-02-17T00:26:17;101715.91;;;9.02;100.00
58975;BME280;44751;52.236;5.178;2023-02-17T00:28:44;101707.84;;;9.02;100.00
58975;BME280;44751;52.236;5.178;2023-02-17T00:31:16;101715.19;;;9.00;100.00
58975;BME280;44751;52.236;5.178;2023-02-17T00:33:46;101706.56;;;8.97;100.00
58975;BME280;44751;52.236;5.178;2023-02-17T00:36:16;101712.50;;;9.00;100.00
58975;BME280;44751;52.236;5.178;2023-02-17T00:38:43;101701.31;;;9.05;100.00
58975;BME280;44751;52.236;5.178;2023-02-17T00:41:11;101709.13;;;8.98;100.00
58975;BME280;44751;52.236;5.178;2023-02-17T00:43:37;101709.41;;;8.95;100.00
58975;BME280;44751;52.236;5.178;2023-02-17T00:46:04;101702.47;;;8.93;100.00
58975;BME280;44751;52.236;5.178;2023-02-17T00:48:31;101698.06;;;8.91;100.00
58975;BME280;44751;52.236;5.178;2023-02-17T00:50:58;101702.31;;;9.04;100.00
58975;BME280;44751;52.236;5.178;2023-02-17T00:53:24;101695.63;;;9.08;100.00
58975;BME280;44751;52.236;5.178;2023-02-17T00:55:51;101691.88;;;8.91;100.00
58975;BME280;44751;52.236;5.178;2023-02-17T00:58:25;101687.91;;;8.85;100.00
58975;BME280;44751;52.236;5.178;2023-02-17T01:00:52;101691.72;;;8.93;100.00
58975;BME280;44751;52.236;5.178;2023-02-17T01:03:20;101705.88;;;8.95;100.00
58975;BME280;44751;52.236;5.178;2023-02-17T01:05:48;101692.88;;;8.90;100.00
58975;BME280;44751;52.236;5.178;2023-02-17T01:08:15;101704.31;;;8.92;100.00
58975;BME280;44751;52.236;5.178;2023-02-17T01:10:44;101709.44;;;8.85;100.00
58975;BME280;44751;52.236;5.178;2023-02-17T01:13:11;101707.44;;;8.87;100.00
58975;BME280;44751;52.236;5.178;2023-02-17T01:15:43;101701.09;;;8.88;100.00
58975;BME280;44751;52.236;5.178;2023-02-17T01:18:10;101687.94;;;8.75;100.00
58975;BME280;44751;52.236;5.178;2023-02-17T01:20:38;101700.50;;;8.85;100.00
58975;BME280;44751;52.236;5.178;2023-02-17T01:23:06;101700.25;;;8.78;100.00
58975;BME280;44751;52.236;5.178;2023-02-17T01:25:38;101704.38;;;8.72;100.00
58975;BME280;44751;52.236;5.178;2023-02-17T01:28:05;101702.94;;;8.78;100.00
58975;BME280;44751;52.236;5.178;2023-02-17T01:30:36;101700.28;;;8.68;100.00
58975;BME280;44751;52.236;5.178;2023-02-17T01:33:03;101703.25;;;8.65;100.00
58975;BME280;44751;52.236;5.178;2023-02-17T01:35:29;101709.34;;;8.67;100.00
58975;BME280;44751;52.236;5.178;2023-02-17T01:37:56;101698.75;;;8.56;100.00
58975;BME280;44751;52.236;5.178;2023-02-17T01:40:25;101698.03;;;8.63;100.00
58975;BME280;44751;52.236;5.178;2023-02-17T01:42:52;101688.00;;;8.56;100.00
58975;BME280;44751;52.236;5.178;2023-02-17T01:47:54;101687.84;;;8.57;100.00
58975;BME280;44751;52.236;5.178;2023-02-17T01:50:27;101697.06;;;8.55;100.00
58975;BME280;44751;52.236;5.178;2023-02-17T01:53:00;101688.00;;;8.56;100.00
58975;BME280;44751;52.236;5.178;2023-02-17T01:55:31;101690.41;;;8.59;100.00
58975;BME280;44751;52.236;5.178;2023-02-17T01:58:01;101688.13;;;8.54;100.00
58975;BME280;44751;52.236;5.178;2023-02-17T02:00:31;101687.84;;;8.57;100.00
58975;BME280;44751;52.236;5.178;2023-02-17T02:02:59;101686.44;;;8.53;100.00
58975;BME280;44751;52.236;5.178;2023-02-17T02:05:26;101655.31;;;8.40;100.00
58975;BME280;44751;52.236;5.178;2023-02-17T02:07:53;101662.09;;;8.45;100.00
58975;BME280;44751;52.236;5.178;2023-02-17T02:10:19;101642.97;;;8.48;100.00
58975;BME280;44751;52.236;5.178;2023-02-17T02:12:46;101647.38;;;8.49;100.00
58975;BME280;44751;52.236;5.178;2023-02-17T02:15:17;101639.44;;;8.47;100.00
58975;BME280;44751;52.236;5.178;2023-02-17T02:18:10;101642.13;;;8.47;100.00
58975;BME280;44751;52.236;5.178;2023-02-17T02:35:08;101628.69;;;8.37;100.00
58975;BME280;44751;52.236;5.178;2023-02-17T02:37:52;101625.88;;;8.39;100.00
58975;BME280;44751;52.236;5.178;2023-02-17T02:40:28;101634.09;;;8.37;100.00
58975;BME280;44751;52.236;5.178;2023-02-17T02:43:00;101635.50;;;8.32;100.00
58975;BME280;44751;52.236;5.178;2023-02-17T02:45:28;101629.97;;;8.33;100.00
58975;BME280;44751;52.236;5.178;2023-02-17T02:47:56;101629.25;;;8.41;100.00
58975;BME280;44751;52.236;5.178;2023-02-17T02:50:42;101623.59;;;8.34;100.00
58975;BME280;44751;52.236;5.178;2023-02-17T02:56:51;101616.13;;;8.38;100.00
58975;BME280;44751;52.236;5.178;2023-02-17T03:07:55;101627.72;;;8.29;100.00
58975;BME280;44751;52.236;5.178;2023-02-17T03:10:24;101618.22;;;8.34;100.00
58975;BME280;44751;52.236;5.178;2023-02-17T03:12:51;101619.66;;;8.29;100.00
58975;BME280;44751;52.236;5.178;2023-02-17T03:15:32;101599.00;;;8.29;100.00
58975;BME280;44751;52.236;5.178;2023-02-17T03:18:00;101595.19;;;8.32;100.00
58975;BME280;44751;52.236;5.178;2023-02-17T03:20:31;101598.13;;;8.38;100.00
58975;BME280;44751;52.236;5.178;2023-02-17T03:22:59;101585.28;;;8.32;100.00
58975;BME280;44751;52.236;5.178;2023-02-17T03:25:29;101582.44;;;8.34;100.00
58975;BME280;44751;52.236;5.178;2023-02-17T03:27:56;101572.97;;;8.30;100.00
58975;BME280;44751;52.236;5.178;2023-02-17T03:30:23;101568.56;;;8.29;100.00
58975;BME280;44751;52.236;5.178;2023-02-17T03:32:49;101567.19;;;8.24;100.00
58975;BME280;44751;52.236;5.178;2023-02-17T03:35:16;101573.28;;;8.26;100.00
58975;BME280;44751;52.236;5.178;2023-02-17T03:37:42;101559.53;;;8.30;100.00
58975;BME280;44751;52.236;5.178;2023-02-17T03:40:15;101560.97;;;8.24;100.00
58975;BME280;44751;52.236;5.178;2023-02-17T03:42:42;101562.50;;;8.26;100.00
58975;BME280;44751;52.236;5.178;2023-02-17T03:45:08;101558.41;;;8.32;100.00
58975;BME280;44751;52.236;5.178;2023-02-17T03:47:35;101553.59;;;8.26;100.00
58975;BME280;44751;52.236;5.178;2023-02-17T03:50:06;101570.13;;;8.31;100.00
58975;BME280;44751;52.236;5.178;2023-02-17T03:52:33;101570.41;;;8.38;100.00
58975;BME280;44751;52.236;5.178;2023-02-17T03:55:00;101556.97;;;8.38;100.00
58975;BME280;44751;52.236;5.178;2023-02-17T03:57:26;101549.19;;;8.35;100.00
58975;BME280;44751;52.236;5.178;2023-02-17T03:59:53;101545.50;;;8.36;100.00
58975;BME280;44751;52.236;5.178;2023-02-17T04:02:19;101555.72;;;8.32;100.00
58975;BME280;44751;52.236;5.178;2023-02-17T04:04:50;101544.59;;;8.45;100.00
58975;BME280;44751;52.236;5.178;2023-02-17T04:07:17;101557.09;;;8.36;100.00
58975;BME280;44751;52.236;5.178;2023-02-17T04:09:43;101568.66;;;8.47;100.00
58975;BME280;44751;52.236;5.178;2023-02-17T04:12:10;101570.69;;;8.35;100.00
58975;BME280;44751;52.236;5.178;2023-02-17T04:14:36;101583.38;;;8.43;100.00
58975;BME280;44751;52.236;5.178;2023-02-17T04:17:03;101576.88;;;8.45;100.00
58975;BME280;44751;52.236;5.178;2023-02-17T04:19:29;101586.38;;;8.49;100.00
58975;BME280;44751;52.236;5.178;2023-02-17T04:21:56;101575.47;;;8.41;100.00
58975;BME280;44751;52.236;5.178;2023-02-17T04:24:22;101563.13;;;8.48;100.00
58975;BME280;44751;52.236;5.178;2023-02-17T04:26:49;101575.59;;;8.49;100.00
58975;BME280;44751;52.236;5.178;2023-02-17T04:29:23;101552.28;;;8.40;100.00
58975;BME280;44751;52.236;5.178;2023-02-17T04:31:49;101555.91;;;8.49;100.00
58975;BME280;44751;52.236;5.178;2023-02-17T04:34:16;101545.44;;;8.56;100.00
58975;BME280;44751;52.236;5.178;2023-02-17T04:36:42;101548.84;;;8.48;100.00
58975;BME280;44751;52.236;5.178;2023-02-17T04:39:14;101557.22;;;8.55;100.00
58975;BME280;44751;52.236;5.178;2023-02-17T04:41:45;101554.63;;;8.63;100.00
58975;BME280;44751;52.236;5.178;2023-02-17T04:44:11;101540.31;;;8.62;100.00
58975;BME280;44751;52.236;5.178;2023-02-17T04:46:38;101545.97;;;8.59;100.00
58975;BME280;44751;52.236;5.178;2023-02-17T04:49:06;101549.63;;;8.68;100.00
58975;BME280;44751;52.236;5.178;2023-02-17T04:51:42;101549.19;;;8.73;100.00
58975;BME280;44751;52.236;5.178;2023-02-17T04:54:09;101544.41;;;8.67;100.00
58975;BME280;44751;52.236;5.178;2023-02-17T04:56:35;101540.88;;;8.66;100.00
58975;BME280;44751;52.236;5.178;2023-02-17T04:59:04;101548.47;;;8.71;100.00
58975;BME280;44751;52.236;5.178;2023-02-17T05:01:31;101557.78;;;8.76;100.00
58975;BME280;44751;52.236;5.178;2023-02-17T05:04:01;101561.06;;;8.80;100.00
58975;BME280;44751;52.236;5.178;2023-02-17T05:06:28;101564.03;;;8.77;100.00
58975;BME280;44751;52.236;5.178;2023-02-17T05:08:54;101578.50;;;8.76;100.00
58975;BME280;44751;52.236;5.178;2023-02-17T05:11:23;101556.59;;;8.89;100.00
58975;BME280;44751;52.236;5.178;2023-02-17T05:13:50;101565.38;;;8.91;100.00
58975;BME280;44751;52.236;5.178;2023-02-17T05:16:19;101552.13;;;8.80;100.00
58975;BME280;44751;52.236;5.178;2023-02-17T05:18:46;101563.22;;;8.95;100.00
58975;BME280;44751;52.236;5.178;2023-02-17T05:21:12;101560.78;;;9.01;100.00
58975;BME280;44751;52.236;5.178;2023-02-17T05:23:41;101545.97;;;8.87;100.00
58975;BME280;44751;52.236;5.178;2023-02-17T05:26:08;101548.66;;;8.87;100.00
58975;BME280;44751;52.236;5.178;2023-02-17T05:28:37;101559.69;;;8.94;100.00
58975;BME280;44751;52.236;5.178;2023-02-17T05:31:04;101545.69;;;8.90;100.00
58975;BME280;44751;52.236;5.178;2023-02-17T05:33:31;101544.00;;;8.89;100.00
58975;BME280;44751;52.236;5.178;2023-02-17T05:36:02;101558.75;;;8.85;100.00
58975;BME280;44751;52.236;5.178;2023-02-17T05:38:33;101536.59;;;8.91;100.00
58975;BME280;44751;52.236;5.178;2023-02-17T05:40:59;101535.69;;;8.83;100.00
58975;BME280;44751;52.236;5.178;2023-02-17T05:43:26;101540.44;;;8.89;100.00
58975;BME280;44751;52.236;5.178;2023-02-17T05:45:53;101528.44;;;8.83;100.00
58975;BME280;44751;52.236;5.178;2023-02-17T05:48:19;101541.31;;;8.89;100.00
58975;BME280;44751;52.236;5.178;2023-02-17T05:50:49;101523.38;;;8.80;100.00
58975;BME280;44751;52.236;5.178;2023-02-17T05:53:25;101508.06;;;8.81;100.00
58975;BME280;44751;52.236;5.178;2023-02-17T05:55:51;101518.97;;;8.79;100.00
58975;BME280;44751;52.236;5.178;2023-02-17T05:58:18;101525.75;;;8.83;100.00
58975;BME280;44751;52.236;5.178;2023-02-17T06:00:44;101525.00;;;8.91;100.00
58975;BME280;44751;52.236;5.178;2023-02-17T06:03:11;101517.63;;;8.93;100.00
58975;BME280;44751;52.236;5.178;2023-02-17T06:05:39;101524.00;;;8.92;100.00
58975;BME280;44751;52.236;5.178;2023-02-17T06:08:06;101520.47;;;8.91;100.00
58975;BME280;44751;52.236;5.178;2023-02-17T06:10:32;101532.63;;;8.96;100.00
58975;BME280;44751;52.236;5.178;2023-02-17T06:13:03;101523.84;;;8.94;100.00
58975;BME280;44751;52.236;5.178;2023-02-17T06:15:29;101539.22;;;9.01;100.00
58975;BME280;44751;52.236;5.178;2023-02-17T06:17:56;101516.88;;;9.01;100.00
58975;BME280;44751;52.236;5.178;2023-02-17T06:20:24;101522.78;;;9.04;100.00
58975;BME280;44751;52.236;5.178;2023-02-17T06:22:51;101514.25;;;9.09;100.00
58975;BME280;44751;52.236;5.178;2023-02-17T06:25:22;101509.41;;;9.13;100.00
58975;BME280;44751;52.236;5.178;2023-02-17T06:27:54;101503.72;;;9.16;100.00
58975;BME280;44751;52.236;5.178;2023-02-17T06:30:21;101496.81;;;9.13;100.00
58975;BME280;44751;52.236;5.178;2023-02-17T06:32:49;101490.63;;;9.21;100.00
58975;BME280;44751;52.236;5.178;2023-02-17T06:35:22;101485.09;;;9.23;100.00
58975;BME280;44751;52.236;5.178;2023-02-17T06:37:49;101490.72;;;9.29;100.00
58975;BME280;44751;52.236;5.178;2023-02-17T06:40:16;101497.97;;;9.29;100.00
58975;BME280;44751;52.236;5.178;2023-02-17T06:42:42;101491.34;;;9.23;100.00
58975;BME280;44751;52.236;5.178;2023-02-17T06:45:09;101489.88;;;9.29;100.00
58975;BME280;44751;52.236;5.178;2023-02-17T06:47:40;101481.97;;;9.27;100.00
58975;BME280;44751;52.236;5.178;2023-02-17T06:50:08;101484.00;;;9.34;100.00
58975;BME280;44751;52.236;5.178;2023-02-17T06:52:34;101484.34;;;9.30;100.00
58975;BME280;44751;52.236;5.178;2023-02-17T06:55:02;101494.78;;;9.34;100.00
58975;BME280;44751;52.236;5.178;2023-02-17T06:57:30;101472.25;;;9.35;100.00
58975;BME280;44751;52.236;5.178;2023-02-17T06:59:57;101475.78;;;9.35;100.00
58975;BME280;44751;52.236;5.178;2023-02-17T07:02:23;101480.00;;;9.38;100.00
58975;BME280;44751;52.236;5.178;2023-02-17T07:04:50;101481.38;;;9.42;100.00
58975;BME280;44751;52.236;5.178;2023-02-17T07:07:16;101497.72;;;9.40;100.00
58975;BME280;44751;52.236;5.178;2023-02-17T07:09:43;101488.78;;;9.40;100.00
58975;BME280;44751;52.236;5.178;2023-02-17T07:12:09;101515.25;;;9.45;100.00
58975;BME280;44751;52.236;5.178;2023-02-17T07:14:40;101514.03;;;9.39;100.00
58975;BME280;44751;52.236;5.178;2023-02-17T07:17:06;101518.25;;;9.41;100.00
58975;BME280;44751;52.236;5.178;2023-02-17T07:19:33;101516.94;;;9.46;100.00
58975;BME280;44751;52.236;5.178;2023-02-17T07:21:59;101513.56;;;9.43;100.00
58975;BME280;44751;52.236;5.178;2023-02-17T07:24:26;101511.88;;;9.42;100.00
58975;BME280;44751;52.236;5.178;2023-02-17T07:26:55;101507.84;;;9.47;100.00
58975;BME280;44751;52.236;5.178;2023-02-17T07:29:27;101495.47;;;9.54;100.00
58975;BME280;44751;52.236;5.178;2023-02-17T07:31:54;101490.94;;;9.54;100.00
58975;BME280;44751;52.236;5.178;2023-02-17T07:34:26;101503.25;;;9.57;100.00
58975;BME280;44751;52.236;5.178;2023-02-17T07:36:52;101495.47;;;9.54;100.00
58975;BME280;44751;52.236;5.178;2023-02-17T07:39:19;101496.13;;;9.56;100.00
58975;BME280;44751;52.236;5.178;2023-02-17T07:41:45;101497.84;;;9.57;100.00
58975;BME280;44751;52.236;5.178;2023-02-17T07:44:20;101498.38;;;9.61;100.00
58975;BME280;44751;52.236;5.178;2023-02-17T07:46:49;101503.91;;;9.59;100.00
58975;BME280;44751;52.236;5.178;2023-02-17T07:49:17;101513.16;;;9.56;100.00
58975;BME280;44751;52.236;5.178;2023-02-17T07:51:43;101498.22;;;9.62;100.00
58975;BME280;44751;52.236;5.178;2023-02-17T07:54:10;101503.97;;;9.67;100.00
58975;BME280;44751;52.236;5.178;2023-02-17T07:56:46;101504.84;;;9.68;100.00
58975;BME280;44751;52.236;5.178;2023-02-17T07:59:13;101505.84;;;9.67;100.00
58975;BME280;44751;52.236;5.178;2023-02-17T08:01:40;101503.47;;;9.64;100.00
58975;BME280;44751;52.236;5.178;2023-02-17T08:04:07;101513.13;;;9.75;100.00
58975;BME280;44751;52.236;5.178;2023-02-17T08:06:33;101510.22;;;9.68;100.00
58975;BME280;44751;52.236;5.178;2023-02-17T08:09:00;101509.66;;;9.64;100.00
58975;BME280;44751;52.236;5.178;2023-02-17T08:11:43;101510.84;;;9.62;100.00
58975;BME280;44751;52.236;5.178;2023-02-17T08:14:29;101536.63;;;9.64;100.00
58975;BME280;44751;52.236;5.178;2023-02-17T08:16:57;101531.22;;;9.64;100.00
58975;BME280;44751;52.236;5.178;2023-02-17T08:19:24;101537.84;;;9.70;100.00
58975;BME280;44751;52.236;5.178;2023-02-17T08:21:51;101554.09;;;9.60;100.00
58975;BME280;44751;52.236;5.178;2023-02-17T08:24:20;101576.28;;;9.54;100.00
58975;BME280;44751;52.236;5.178;2023-02-17T08:26:51;101552.78;;;9.64;100.00
58975;BME280;44751;52.236;5.178;2023-02-17T08:29:18;101538.56;;;9.54;100.00
58975;BME280;44751;52.236;5.178;2023-02-17T08:31:45;101546.50;;;9.55;100.00
58975;BME280;44751;52.236;5.178;2023-02-17T08:34:12;101537.88;;;9.52;100.00
58975;BME280;44751;52.236;5.178;2023-02-17T08:36:44;101548.81;;;9.50;100.00
58975;BME280;44751;52.236;5.178;2023-02-17T08:39:14;101564.66;;;9.53;100.00
58975;BME280;44751;52.236;5.178;2023-02-17T08:41:42;101562.28;;;9.50;100.00
58975;BME280;44751;52.236;5.178;2023-02-17T08:44:17;101573.66;;;9.44;100.00
58975;BME280;44751;52.236;5.178;2023-02-17T08:46:45;101561.88;;;9.45;100.00
58975;BME280;44751;52.236;5.178;2023-02-17T08:49:13;101572.50;;;9.47;100.00
58975;BME280;44751;52.236;5.178;2023-02-17T08:51:41;101562.59;;;9.47;100.00
58975;BME280;44751;52.236;5.178;2023-02-17T08:54:08;101559.34;;;9.43;100.00
58975;BME280;44751;52.236;5.178;2023-02-17T08:56:42;101549.94;;;9.48;100.00
58975;BME280;44751;52.236;5.178;2023-02-17T08:59:10;101560.41;;;9.51;100.00
58975;BME280;44751;52.236;5.178;2023-02-17T09:01:41;101548.63;;;9.52;100.00
58975;BME280;44751;52.236;5.178;2023-02-17T09:04:10;101557.78;;;9.59;100.00
58975;BME280;44751;52.236;5.178;2023-02-17T09:06:42;101564.28;;;9.48;100.00
58975;BME280;44751;52.236;5.178;2023-02-17T09:09:11;101564.50;;;9.55;100.00
58975;BME280;44751;52.236;5.178;2023-02-17T09:11:38;101551.81;;;9.65;100.00
58975;BME280;44751;52.236;5.178;2023-02-17T09:14:05;101569.56;;;9.76;100.00
58975;BME280;44751;52.236;5.178;2023-02-17T09:16:34;101562.50;;;9.75;100.00
58975;BME280;44751;52.236;5.178;2023-02-17T09:19:02;101555.78;;;9.79;100.00
58975;BME280;44751;52.236;5.178;2023-02-17T09:21:28;101555.47;;;9.82;100.00
58975;BME280;44751;52.236;5.178;2023-02-17T09:23:58;101570.09;;;9.80;100.00
58975;BME280;44751;52.236;5.178;2023-02-17T09:26:31;101554.16;;;9.87;100.00
58975;BME280;44751;52.236;5.178;2023-02-17T09:28:59;101553.91;;;9.80;100.00
58975;BME280;44751;52.236;5.178;2023-02-17T09:31:28;101557.84;;;9.86;100.00
58975;BME280;44751;52.236;5.178;2023-02-17T09:34:04;101553.66;;;9.91;100.00
58975;BME280;44751;52.236;5.178;2023-02-17T09:36:35;101558.97;;;10.01;100.00
58975;BME280;44751;52.236;5.178;2023-02-17T09:39:03;101550.94;;;10.10;100.00
58975;BME280;44751;52.236;5.178;2023-02-17T09:43:59;101539.25;;;10.27;100.00
58975;BME280;44751;52.236;5.178;2023-02-17T09:46:33;101548.56;;;10.33;100.00
58975;BME280;44751;52.236;5.178;2023-02-17T09:49:14;101530.25;;;10.18;100.00
58975;BME280;44751;52.236;5.178;2023-02-17T09:51:50;101531.97;;;10.28;100.00
58975;BME280;44751;52.236;5.178;2023-02-17T09:55:06;101549.53;;;10.32;100.00
58975;BME280;44751;52.236;5.178;2023-02-17T09:58:02;101547.81;;;10.23;100.00
58975;BME280;44751;52.236;5.178;2023-02-17T10:00:34;101561.97;;;10.25;100.00
58975;BME280;44751;52.236;5.178;2023-02-17T10:03:11;101564.63;;;10.16;100.00
58975;BME280;44751;52.236;5.178;2023-02-17T10:05:50;101563.63;;;10.17;100.00
58975;BME280;44751;52.236;5.178;2023-02-17T10:08:26;101572.06;;;10.23;100.00
58975;BME280;44751;52.236;5.178;2023-02-17T10:11:03;101577.47;;;10.23;100.00
58975;BME280;44751;52.236;5.178;2023-02-17T10:13:35;101588.41;;;10.21;100.00
58975;BME280;44751;52.236;5.178;2023-02-17T10:16:12;101581.66;;;10.17;100.00
58975;BME280;44751;52.236;5.178;2023-02-17T10:18:47;101589.63;;;10.27;100.00
58975;BME280;44751;52.236;5.178;2023-02-17T10:21:18;101588.78;;;10.26;100.00
58975;BME280;44751;52.236;5.178;2023-02-17T10:23:53;101596.13;;;10.16;100.00
58975;BME280;44751;52.236;5.178;2023-02-17T10:26:44;101594.41;;;10.33;100.00
58975;BME280;44751;52.236;5.178;2023-02-17T10:29:31;101585.63;;;10.31;100.00
58975;BME280;44751;52.236;5.178;2023-02-17T10:32:23;101581.75;;;10.33;100.00
58975;BME280;44751;52.236;5.178;2023-02-17T10:35:11;101579.34;;;10.30;100.00
58975;BME280;44751;52.236;5.178;2023-02-17T10:37:45;101601.06;;;10.47;100.00
58975;BME280;44751;52.236;5.178;2023-02-17T10:40:22;101597.97;;;10.42;100.00
58975;BME280;44751;52.236;5.178;2023-02-17T10:43:01;101595.44;;;10.40;100.00
58975;BME280;44751;52.236;5.178;2023-02-17T10:45:40;101578.59;;;10.38;100.00
58975;BME280;44751;52.236;5.178;2023-02-17T10:48:15;101585.81;;;10.38;100.00
58975;BME280;44751;52.236;5.178;2023-02-17T10:50:44;101595.50;;;10.49;100.00
58975;BME280;44751;52.236;5.178;2023-02-17T10:53:18;101599.59;;;10.53;100.00
58975;BME280;44751;52.236;5.178;2023-02-17T10:55:55;101607.34;;;10.56;100.00
58975;BME280;44751;52.236;5.178;2023-02-17T10:58:34;101621.22;;;10.61;100.00
58975;BME280;44751;52.236;5.178;2023-02-17T11:01:03;101609.53;;;10.52;100.00
58975;BME280;44751;52.236;5.178;2023-02-17T11:03:35;101624.72;;;10.53;100.00
58975;BME280;44751;52.236;5.178;2023-02-17T11:06:21;101626.59;;;10.61;100.00
58975;BME280;44751;52.236;5.178;2023-02-17T11:09:05;101630.75;;;10.47;100.00
58975;BME280;44751;52.236;5.178;2023-02-17T11:11:35;101624.88;;;10.52;100.00
58975;BME280;44751;52.236;5.178;2023-02-17T11:16:44;101624.59;;;10.63;100.00
58975;BME280;44751;52.236;5.178;2023-02-17T11:22:00;101640.94;;;10.62;100.00
58975;BME280;44751;52.236;5.178;2023-02-17T11:24:33;101643.28;;;10.56;100.00
58975;BME280;44751;52.236;5.178;2023-02-17T11:27:04;101631.84;;;10.63;100.00
58975;BME280;44751;52.236;5.178;2023-02-17T11:29:37;101630.47;;;10.58;100.00
58975;BME280;44751;52.236;5.178;2023-02-17T11:32:07;101661.56;;;10.71;100.00
58975;BME280;44751;52.236;5.178;2023-02-17T11:34:36;101663.25;;;10.64;100.00
58975;BME280;44751;52.236;5.178;2023-02-17T11:37:18;101660.19;;;10.67;100.00
58975;BME280;44751;52.236;5.178;2023-02-17T11:39:51;101658.16;;;10.61;100.00
58975;BME280;44751;52.236;5.178;2023-02-17T11:42:25;101666.78;;;10.64;100.00
58975;BME280;44751;52.236;5.178;2023-02-17T11:44:55;101660.75;;;10.70;100.00
58975;BME280;44751;52.236;5.178;2023-02-17T11:58:00;101661.28;;;10.48;100.00
58975;BME280;44751;52.236;5.178;2023-02-17T12:10:04;101692.53;;;10.40;100.00
58975;BME280;44751;52.236;5.178;2023-02-17T12:12:45;101698.28;;;10.37;100.00
58975;BME280;44751;52.236;5.178;2023-02-17T12:18:13;101683.09;;;10.18;100.00
58975;BME280;44751;52.236;5.178;2023-02-17T12:23:50;101690.66;;;10.14;100.00
58975;BME280;44751;52.236;5.178;2023-02-17T12:31:43;101691.75;;;10.22;100.00
58975;BME280;44751;52.236;5.178;2023-02-17T12:37:02;101691.75;;;10.22;100.00
58975;BME280;44751;52.236;5.178;2023-02-17T12:39:40;101701.22;;;10.26;100.00
58975;BME280;44751;52.236;5.178;2023-02-17T12:42:50;101712.84;;;10.08;100.00
58975;BME280;44751;52.236;5.178;2023-02-17T12:45:24;101712.41;;;10.13;100.00
58975;BME280;44751;52.236;5.178;2023-02-17T12:48:04;101703.88;;;9.99;100.00
58975;BME280;44751;52.236;5.178;2023-02-17T12:50:51;101698.75;;;10.14;100.00
58975;BME280;44751;52.236;5.178;2023-02-17T12:53:53;101701.22;;;10.26;100.00
58975;BME280;44751;52.236;5.178;2023-02-17T12:59:04;101700.38;;;10.25;100.00
58975;BME280;44751;52.236;5.178;2023-02-17T13:01:39;101691.16;;;10.36;100.00
58975;BME280;44751;52.236;5.178;2023-02-17T13:04:14;101709.44;;;10.42;100.00
58975;BME280;44751;52.236;5.178;2023-02-17T13:06:58;101702.81;;;10.55;100.00
58975;BME280;44751;52.236;5.178;2023-02-17T13:17:30;101706.84;;;10.51;100.00
58975;BME280;44751;52.236;5.178;2023-02-17T13:22:45;101722.00;;;10.52;100.00
58975;BME280;44751;52.236;5.178;2023-02-17T13:25:26;101714.28;;;10.57;100.00
58975;BME280;44751;52.236;5.178;2023-02-17T13:27:59;101700.69;;;10.67;100.00
58975;BME280;44751;52.236;5.178;2023-02-17T13:30:39;101705.78;;;10.70;100.00
58975;BME280;44751;52.236;5.178;2023-02-17T13:35:47;101711.91;;;10.80;100.00
58975;BME280;44751;52.236;5.178;2023-02-17T13:38:30;101708.66;;;10.77;100.00
58975;BME280;44751;52.236;5.178;2023-02-17T13:41:04;101715.75;;;10.69;100.00
58975;BME280;44751;52.236;5.178;2023-02-17T13:43:46;101728.69;;;10.66;100.00
58975;BME280;44751;52.236;5.178;2023-02-17T13:46:23;101697.34;;;10.73;100.00
58975;BME280;44751;52.236;5.178;2023-02-17T13:49:02;101707.91;;;10.84;100.00
58975;BME280;44751;52.236;5.178;2023-02-17T13:51:30;101701.28;;;10.79;100.00
58975;BME280;44751;52.236;5.178;2023-02-17T13:54:10;101701.47;;;10.85;100.00
58975;BME280;44751;52.236;5.178;2023-02-17T13:56:40;101698.19;;;11.00;100.00
58975;BME280;44751;52.236;5.178;2023-02-17T13:59:16;101682.63;;;10.94;100.00
58975;BME280;44751;52.236;5.178;2023-02-17T14:01:59;101691.84;;;10.83;100.00
58975;BME280;44751;52.236;5.178;2023-02-17T14:04:28;101671.50;;;10.97;100.00
58975;BME280;44751;52.236;5.178;2023-02-17T14:06:57;101685.19;;;11.04;100.00
58975;BME280;44751;52.236;5.178;2023-02-17T14:48:41;101739.09;;;11.57;100.00
58975;BME280;44751;52.236;5.178;2023-02-17T14:51:18;101732.44;;;11.34;100.00
58975;BME280;44751;52.236;5.178;2023-02-17T14:53:45;101736.03;;;11.43;100.00
58975;BME280;44751;52.236;5.178;2023-02-17T14:56:35;101746.41;;;11.30;100.00
58975;BME280;44751;52.236;5.178;2023-02-17T14:59:03;101727.19;;;11.33;100.00
58975;BME280;44751;52.236;5.178;2023-02-17T15:01:30;101756.63;;;11.44;100.00
58975;BME280;44751;52.236;5.178;2023-02-17T15:03:59;101760.97;;;11.37;100.00
58975;BME280;44751;52.236;5.178;2023-02-17T15:06:34;101772.63;;;11.38;100.00
58975;BME280;44751;52.236;5.178;2023-02-17T15:09:01;101751.22;;;11.44;100.00
58975;BME280;44751;52.236;5.178;2023-02-17T15:11:44;101752.03;;;11.36;100.00
58975;BME280;44751;52.236;5.178;2023-02-17T15:14:14;101756.06;;;11.32;100.00